Middle Grove, NY (12850)

9:33 AM EST on February 09, 2016 (GMT -0500)
In the middle of a forest | | Change Station
CLOSE
Current Station
Personal Weather Station
Location: Middle Grove, NY
Elevation: 1319 ft
Nearby Weather Stations

Elev 1319 ft 43.09 °N, 74.00 °W | Updated 15 minutes ago

Overcast
Overcast
20.0 °F
Feels Like 20 °F
N
0.0
Wind Variable Wind from East
Gusts 1.0 mph

Today
High -- | Low -- °F
--% Chance of Precip.
Yesterday
High -- | Low -- °F
Precip. -- in
Pressure 29.68 in
Visibility 5.0 miles
Clouds Overcast 1100 ft
Windchill 20 °F
Dew Point 18 °F
Humidity 93%
Rainfall 0.00 in
Snow Depth Not available.
7:02 AM 5:18 PM
New Moon, 1% visible
METAR KSCH 091350Z 17006KT 5SM BR OVC011 M04/M06 A2968
Pressure 29.68 in
Visibility 5.0 miles
Clouds Overcast 1100 ft
Windchill 20 °F
Dew Point 18 °F
Humidity 93%
Rainfall 0.00 in
Snow Depth Not available.
7:02 AM 5:18 PM
New Moon, 1% visible
METAR KSCH 091350Z 17006KT 5SM BR OVC011 M04/M06 A2968

10-Day Weather Forecast

Almanac

Astronomy

Feb. 09, 2016 Rise Set
Actual Time
Civil Twilight
Nautical Twilight
Astronomical Twilight
Moon
Length of Visible Light
Length of Day
Tomorrow will be .
, % of the Moon is Illuminated

Today's Extremes

State Highs State Lows

Community

WunderPhotos

Upload Photos

1,891,606 photos uploaded!

WunderBlog® & News

Nearby

Air Quality

  Air Quality AQ Index Pollutant
Not available.

Snow Depth

Station Depth Elevation

Earthquake Activity

City Distance Mag. Time & Date
Minimum magnitude displayed is 2.5.

Coastal Water Temperatures

Place Temperature

Stations

Nearby Weather Stations

Station Location Temp. Windchill Dew Point Humidity Wind Precip. Elev Updated Type
                   

Watches & Warnings

There are currently no watches in effect.